sensor_id;sensor_type;location;lat;lon;timestamp;temperature;humidity
24426;DHT22;12611;44.446;26.000;2023-11-21T00:00:33;11.10;85.90
24426;DHT22;12611;44.446;26.000;2023-11-21T00:03:02;11.10;85.90
24426;DHT22;12611;44.446;26.000;2023-11-21T00:05:31;11.10;85.80
24426;DHT22;12611;44.446;26.000;2023-11-21T00:08:04;11.10;85.60
24426;DHT22;12611;44.446;26.000;2023-11-21T00:10:33;11.10;85.60
24426;DHT22;12611;44.446;26.000;2023-11-21T00:13:05;11.10;85.60
24426;DHT22;12611;44.446;26.000;2023-11-21T00:15:36;11.10;85.50
24426;DHT22;12611;44.446;26.000;2023-11-21T00:18:05;11.10;85.50
24426;DHT22;12611;44.446;26.000;2023-11-21T00:20:34;11.00;85.30
24426;DHT22;12611;44.446;26.000;2023-11-21T00:23:03;11.10;86.10
24426;DHT22;12611;44.446;26.000;2023-11-21T00:25:31;11.00;85.20
24426;DHT22;12611;44.446;26.000;2023-11-21T00:28:00;11.00;85.10
24426;DHT22;12611;44.446;26.000;2023-11-21T00:30:30;10.90;85.00
24426;DHT22;12611;44.446;26.000;2023-11-21T00:33:02;10.90;85.00
24426;DHT22;12611;44.446;26.000;2023-11-21T00:35:31;10.80;85.00
24426;DHT22;12611;44.446;26.000;2023-11-21T00:38:00;10.80;85.20
24426;DHT22;12611;44.446;26.000;2023-11-21T00:40:31;10.80;85.10
24426;DHT22;12611;44.446;26.000;2023-11-21T00:43:00;10.70;85.10
24426;DHT22;12611;44.446;26.000;2023-11-21T00:45:32;10.70;85.20
24426;DHT22;12611;44.446;26.000;2023-11-21T00:48:04;10.70;85.40
24426;DHT22;12611;44.446;26.000;2023-11-21T00:50:33;10.60;85.20
24426;DHT22;12611;44.446;26.000;2023-11-21T00:53:02;10.60;85.20
24426;DHT22;12611;44.446;26.000;2023-11-21T00:55:30;10.60;85.20
24426;DHT22;12611;44.446;26.000;2023-11-21T00:57:59;10.60;85.20
24426;DHT22;12611;44.446;26.000;2023-11-21T01:00:30;10.50;85.30
24426;DHT22;12611;44.446;26.000;2023-11-21T01:02:59;10.50;85.60
24426;DHT22;12611;44.446;26.000;2023-11-21T01:05:31;10.50;85.50
24426;DHT22;12611;44.446;26.000;2023-11-21T01:07:59;10.40;85.60
24426;DHT22;12611;44.446;26.000;2023-11-21T01:10:28;10.40;85.70
24426;DHT22;12611;44.446;26.000;2023-11-21T01:12:57;10.40;85.70
24426;DHT22;12611;44.446;26.000;2023-11-21T01:15:27;10.40;85.80
24426;DHT22;12611;44.446;26.000;2023-11-21T01:17:56;10.30;85.80
24426;DHT22;12611;44.446;26.000;2023-11-21T01:20:25;10.30;86.00
24426;DHT22;12611;44.446;26.000;2023-11-21T01:22:55;10.30;86.20
24426;DHT22;12611;44.446;26.000;2023-11-21T01:25:24;10.20;86.60
24426;DHT22;12611;44.446;26.000;2023-11-21T01:27:53;10.20;87.00
24426;DHT22;12611;44.446;26.000;2023-11-21T01:30:21;10.10;87.30
24426;DHT22;12611;44.446;26.000;2023-11-21T01:32:50;10.10;87.30
24426;DHT22;12611;44.446;26.000;2023-11-21T01:35:18;10.00;87.60
24426;DHT22;12611;44.446;26.000;2023-11-21T01:37:47;10.00;87.80
24426;DHT22;12611;44.446;26.000;2023-11-21T01:40:17;10.00;87.90
24426;DHT22;12611;44.446;26.000;2023-11-21T01:42:46;9.90;88.10
24426;DHT22;12611;44.446;26.000;2023-11-21T01:45:16;9.90;88.10
24426;DHT22;12611;44.446;26.000;2023-11-21T01:47:45;9.90;88.10
24426;DHT22;12611;44.446;26.000;2023-11-21T01:50:16;9.90;88.40
24426;DHT22;12611;44.446;26.000;2023-11-21T01:52:46;9.90;88.30
24426;DHT22;12611;44.446;26.000;2023-11-21T01:55:18;9.90;88.30
24426;DHT22;12611;44.446;26.000;2023-11-21T01:57:50;9.90;88.30
24426;DHT22;12611;44.446;26.000;2023-11-21T02:00:19;9.90;88.20
24426;DHT22;12611;44.446;26.000;2023-11-21T02:02:48;10.00;88.20
24426;DHT22;12611;44.446;26.000;2023-11-21T02:05:18;10.00;88.20
24426;DHT22;12611;44.446;26.000;2023-11-21T02:07:48;10.00;88.00
24426;DHT22;12611;44.446;26.000;2023-11-21T02:10:21;10.00;88.00
24426;DHT22;12611;44.446;26.000;2023-11-21T02:12:51;10.00;88.00
24426;DHT22;12611;44.446;26.000;2023-11-21T02:15:20;10.00;88.00
24426;DHT22;12611;44.446;26.000;2023-11-21T02:17:50;9.90;88.10
24426;DHT22;12611;44.446;26.000;2023-11-21T02:20:22;9.90;88.10
24426;DHT22;12611;44.446;26.000;2023-11-21T02:22:55;9.90;88.20
24426;DHT22;12611;44.446;26.000;2023-11-21T02:25:30;9.90;88.30
24426;DHT22;12611;44.446;26.000;2023-11-21T02:28:00;9.90;88.50
24426;DHT22;12611;44.446;26.000;2023-11-21T02:30:31;9.90;88.60
24426;DHT22;12611;44.446;26.000;2023-11-21T02:33:00;9.90;88.90
24426;DHT22;12611;44.446;26.000;2023-11-21T02:35:29;9.80;89.00
24426;DHT22;12611;44.446;26.000;2023-11-21T02:38:00;9.70;89.10
24426;DHT22;12611;44.446;26.000;2023-11-21T02:40:30;9.70;89.30
24426;DHT22;12611;44.446;26.000;2023-11-21T02:43:02;9.70;89.30
24426;DHT22;12611;44.446;26.000;2023-11-21T02:45:33;9.70;89.50
24426;DHT22;12611;44.446;26.000;2023-11-21T02:48:01;9.60;89.70
24426;DHT22;12611;44.446;26.000;2023-11-21T02:50:32;9.60;90.20
24426;DHT22;12611;44.446;26.000;2023-11-21T02:53:04;9.50;90.20
24426;DHT22;12611;44.446;26.000;2023-11-21T02:55:33;9.50;90.30
24426;DHT22;12611;44.446;26.000;2023-11-21T02:58:03;9.50;90.30
24426;DHT22;12611;44.446;26.000;2023-11-21T03:00:33;9.50;90.20
24426;DHT22;12611;44.446;26.000;2023-11-21T03:03:02;9.40;90.30
24426;DHT22;12611;44.446;26.000;2023-11-21T03:05:31;9.40;90.30
24426;DHT22;12611;44.446;26.000;2023-11-21T03:08:04;9.40;90.30
24426;DHT22;12611;44.446;26.000;2023-11-21T03:10:33;9.30;90.40
24426;DHT22;12611;44.446;26.000;2023-11-21T03:13:03;9.40;90.50
24426;DHT22;12611;44.446;26.000;2023-11-21T03:15:32;9.30;90.40
24426;DHT22;12611;44.446;26.000;2023-11-21T03:18:03;9.30;90.40
24426;DHT22;12611;44.446;26.000;2023-11-21T03:20:32;9.30;90.40
24426;DHT22;12611;44.446;26.000;2023-11-21T03:23:03;9.40;90.40
24426;DHT22;12611;44.446;26.000;2023-11-21T03:25:33;9.40;90.40
24426;DHT22;12611;44.446;26.000;2023-11-21T03:28:02;9.40;90.40
24426;DHT22;12611;44.446;26.000;2023-11-21T03:30:31;9.40;90.40
24426;DHT22;12611;44.446;26.000;2023-11-21T03:33:00;9.30;90.30
24426;DHT22;12611;44.446;26.000;2023-11-21T03:35:28;9.30;90.30
24426;DHT22;12611;44.446;26.000;2023-11-21T03:37:57;9.30;90.30
24426;DHT22;12611;44.446;26.000;2023-11-21T03:40:28;9.30;90.40
24426;DHT22;12611;44.446;26.000;2023-11-21T03:42:58;9.30;90.30
24426;DHT22;12611;44.446;26.000;2023-11-21T03:45:26;9.30;90.40
24426;DHT22;12611;44.446;26.000;2023-11-21T03:47:56;9.30;90.40
24426;DHT22;12611;44.446;26.000;2023-11-21T03:50:25;9.20;90.30
24426;DHT22;12611;44.446;26.000;2023-11-21T03:52:54;9.20;90.30
24426;DHT22;12611;44.446;26.000;2023-11-21T03:55:23;9.20;90.40
24426;DHT22;12611;44.446;26.000;2023-11-21T03:57:55;9.20;90.30
24426;DHT22;12611;44.446;26.000;2023-11-21T04:00:24;9.10;90.40
24426;DHT22;12611;44.446;26.000;2023-11-21T04:02:53;9.10;90.40
24426;DHT22;12611;44.446;26.000;2023-11-21T04:05:22;9.10;90.40
24426;DHT22;12611;44.446;26.000;2023-11-21T04:07:51;9.00;90.40
24426;DHT22;12611;44.446;26.000;2023-11-21T04:10:20;9.00;90.40
24426;DHT22;12611;44.446;26.000;2023-11-21T04:12:49;9.00;90.50
24426;DHT22;12611;44.446;26.000;2023-11-21T04:15:19;8.90;90.60
24426;DHT22;12611;44.446;26.000;2023-11-21T04:17:49;8.90;90.60
24426;DHT22;12611;44.446;26.000;2023-11-21T04:20:18;8.90;90.50
24426;DHT22;12611;44.446;26.000;2023-11-21T04:22:48;8.90;90.60
24426;DHT22;12611;44.446;26.000;2023-11-21T04:25:18;8.90;90.60
24426;DHT22;12611;44.446;26.000;2023-11-21T04:27:47;8.90;90.60
24426;DHT22;12611;44.446;26.000;2023-11-21T04:30:16;8.80;90.50
24426;DHT22;12611;44.446;26.000;2023-11-21T04:32:46;8.80;90.50
24426;DHT22;12611;44.446;26.000;2023-11-21T04:35:14;8.80;90.60
24426;DHT22;12611;44.446;26.000;2023-11-21T04:37:43;8.80;90.60
24426;DHT22;12611;44.446;26.000;2023-11-21T04:40:12;8.80;90.60
24426;DHT22;12611;44.446;26.000;2023-11-21T04:42:40;8.70;90.70
24426;DHT22;12611;44.446;26.000;2023-11-21T04:45:09;8.70;90.60
24426;DHT22;12611;44.446;26.000;2023-11-21T04:47:40;8.70;90.80
24426;DHT22;12611;44.446;26.000;2023-11-21T04:50:11;8.70;90.80
24426;DHT22;12611;44.446;26.000;2023-11-21T04:52:39;8.70;90.90
24426;DHT22;12611;44.446;26.000;2023-11-21T04:55:08;8.70;90.90
24426;DHT22;12611;44.446;26.000;2023-11-21T04:57:38;8.70;90.90
24426;DHT22;12611;44.446;26.000;2023-11-21T05:00:10;8.70;91.00
24426;DHT22;12611;44.446;26.000;2023-11-21T05:02:40;8.70;91.10
24426;DHT22;12611;44.446;26.000;2023-11-21T05:05:13;8.70;91.10
24426;DHT22;12611;44.446;26.000;2023-11-21T05:07:42;8.70;91.10
24426;DHT22;12611;44.446;26.000;2023-11-21T05:10:11;8.70;91.00
24426;DHT22;12611;44.446;26.000;2023-11-21T05:12:42;8.70;91.20
24426;DHT22;12611;44.446;26.000;2023-11-21T05:15:14;8.70;91.00
24426;DHT22;12611;44.446;26.000;2023-11-21T05:17:44;8.70;90.90
24426;DHT22;12611;44.446;26.000;2023-11-21T05:20:16;8.80;90.90
24426;DHT22;12611;44.446;26.000;2023-11-21T05:22:48;8.80;90.90
24426;DHT22;12611;44.446;26.000;2023-11-21T05:25:17;8.80;90.90
24426;DHT22;12611;44.446;26.000;2023-11-21T05:27:46;8.80;90.90
24426;DHT22;12611;44.446;26.000;2023-11-21T05:30:15;8.80;90.80
24426;DHT22;12611;44.446;26.000;2023-11-21T05:32:47;8.90;90.80
24426;DHT22;12611;44.446;26.000;2023-11-21T05:35:18;8.90;90.80
24426;DHT22;12611;44.446;26.000;2023-11-21T05:37:48;8.90;90.80
24426;DHT22;12611;44.446;26.000;2023-11-21T05:42:28;8.90;90.70
24426;DHT22;12611;44.446;26.000;2023-11-21T05:43:49;9.00;90.70
24426;DHT22;12611;44.446;26.000;2023-11-21T05:46:18;9.00;90.60
24426;DHT22;12611;44.446;26.000;2023-11-21T05:48:47;9.00;90.60
24426;DHT22;12611;44.446;26.000;2023-11-21T05:54:49;9.10;90.50
24426;DHT22;12611;44.446;26.000;2023-11-21T05:57:18;9.10;90.50
24426;DHT22;12611;44.446;26.000;2023-11-21T05:59:47;9.10;90.40
24426;DHT22;12611;44.446;26.000;2023-11-21T06:02:15;9.20;90.80
24426;DHT22;12611;44.446;26.000;2023-11-21T06:04:45;9.10;90.40
24426;DHT22;12611;44.446;26.000;2023-11-21T06:07:14;9.10;90.90
24426;DHT22;12611;44.446;26.000;2023-11-21T06:09:42;9.20;90.60
24426;DHT22;12611;44.446;26.000;2023-11-21T06:12:13;9.10;90.60
24426;DHT22;12611;44.446;26.000;2023-11-21T06:14:43;9.20;90.60
24426;DHT22;12611;44.446;26.000;2023-11-21T06:17:13;9.20;90.50
24426;DHT22;12611;44.446;26.000;2023-11-21T06:19:44;9.30;90.60
24426;DHT22;12611;44.446;26.000;2023-11-21T06:22:13;9.30;90.50
24426;DHT22;12611;44.446;26.000;2023-11-21T06:24:41;9.40;90.70
24426;DHT22;12611;44.446;26.000;2023-11-21T06:27:10;9.40;90.70
24426;DHT22;12611;44.446;26.000;2023-11-21T06:29:41;9.40;90.60
24426;DHT22;12611;44.446;26.000;2023-11-21T06:32:11;9.50;90.60
24426;DHT22;12611;44.446;26.000;2023-11-21T06:34:40;9.50;90.50
24426;DHT22;12611;44.446;26.000;2023-11-21T06:37:08;9.50;90.50
24426;DHT22;12611;44.446;26.000;2023-11-21T06:39:38;9.50;90.40
24426;DHT22;12611;44.446;26.000;2023-11-21T06:42:07;9.60;90.40
24426;DHT22;12611;44.446;26.000;2023-11-21T06:44:36;9.60;90.40
24426;DHT22;12611;44.446;26.000;2023-11-21T06:47:06;9.60;90.40
24426;DHT22;12611;44.446;26.000;2023-11-21T06:49:35;9.70;90.40
24426;DHT22;12611;44.446;26.000;2023-11-21T06:52:03;9.70;90.40
24426;DHT22;12611;44.446;26.000;2023-11-21T06:54:32;9.80;90.40
24426;DHT22;12611;44.446;26.000;2023-11-21T06:57:01;9.80;90.40
24426;DHT22;12611;44.446;26.000;2023-11-21T06:59:29;9.80;90.40
24426;DHT22;12611;44.446;26.000;2023-11-21T07:01:58;9.90;90.40
24426;DHT22;12611;44.446;26.000;2023-11-21T07:04:32;9.90;90.40
24426;DHT22;12611;44.446;26.000;2023-11-21T07:07:01;9.90;90.40
24426;DHT22;12611;44.446;26.000;2023-11-21T07:09:31;10.00;90.50
24426;DHT22;12611;44.446;26.000;2023-11-21T07:12:00;10.00;90.50
24426;DHT22;12611;44.446;26.000;2023-11-21T07:14:28;10.00;90.40
24426;DHT22;12611;44.446;26.000;2023-11-21T07:16:57;10.00;90.30
24426;DHT22;12611;44.446;26.000;2023-11-21T07:19:26;10.10;90.30
24426;DHT22;12611;44.446;26.000;2023-11-21T07:21:56;10.10;90.30
24426;DHT22;12611;44.446;26.000;2023-11-21T07:24:25;10.10;90.20
24426;DHT22;12611;44.446;26.000;2023-11-21T07:26:54;10.10;90.10
24426;DHT22;12611;44.446;26.000;2023-11-21T07:29:24;10.10;90.10
24426;DHT22;12611;44.446;26.000;2023-11-21T07:31:53;10.10;90.20
24426;DHT22;12611;44.446;26.000;2023-11-21T07:34:22;10.20;90.10
24426;DHT22;12611;44.446;26.000;2023-11-21T07:36:55;10.10;90.00
24426;DHT22;12611;44.446;26.000;2023-11-21T07:39:24;10.20;90.10
24426;DHT22;12611;44.446;26.000;2023-11-21T07:41:52;10.30;90.10
24426;DHT22;12611;44.446;26.000;2023-11-21T07:44:21;10.30;90.10
24426;DHT22;12611;44.446;26.000;2023-11-21T07:46:49;10.40;90.10
24426;DHT22;12611;44.446;26.000;2023-11-21T07:49:18;10.40;90.10
24426;DHT22;12611;44.446;26.000;2023-11-21T07:51:48;10.40;90.10
24426;DHT22;12611;44.446;26.000;2023-11-21T07:54:18;10.50;90.00
24426;DHT22;12611;44.446;26.000;2023-11-21T07:56:46;10.50;90.00
24426;DHT22;12611;44.446;26.000;2023-11-21T07:59:15;10.60;90.00
24426;DHT22;12611;44.446;26.000;2023-11-21T08:01:45;10.70;90.10
24426;DHT22;12611;44.446;26.000;2023-11-21T08:04:13;10.70;90.10
24426;DHT22;12611;44.446;26.000;2023-11-21T08:06:42;10.70;90.10
24426;DHT22;12611;44.446;26.000;2023-11-21T08:09:11;10.80;90.20
24426;DHT22;12611;44.446;26.000;2023-11-21T08:11:41;10.90;90.20
24426;DHT22;12611;44.446;26.000;2023-11-21T08:14:09;11.00;90.30
24426;DHT22;12611;44.446;26.000;2023-11-21T08:16:38;11.00;90.20
24426;DHT22;12611;44.446;26.000;2023-11-21T08:19:07;11.10;90.20
24426;DHT22;12611;44.446;26.000;2023-11-21T08:21:36;11.10;90.20
24426;DHT22;12611;44.446;26.000;2023-11-21T08:24:07;11.20;90.10
24426;DHT22;12611;44.446;26.000;2023-11-21T08:26:38;11.30;90.10
24426;DHT22;12611;44.446;26.000;2023-11-21T08:29:08;11.30;90.20
24426;DHT22;12611;44.446;26.000;2023-11-21T08:31:37;11.40;90.20
24426;DHT22;12611;44.446;26.000;2023-11-21T08:34:06;11.50;90.20
24426;DHT22;12611;44.446;26.000;2023-11-21T08:36:36;11.60;90.20
24426;DHT22;12611;44.446;26.000;2023-11-21T08:39:04;11.70;90.10
24426;DHT22;12611;44.446;26.000;2023-11-21T08:41:34;11.80;90.00
24426;DHT22;12611;44.446;26.000;2023-11-21T08:44:04;11.90;90.00
24426;DHT22;12611;44.446;26.000;2023-11-21T08:46:36;12.00;89.80
24426;DHT22;12611;44.446;26.000;2023-11-21T08:49:06;12.10;89.90
24426;DHT22;12611;44.446;26.000;2023-11-21T08:51:35;12.20;89.90
24426;DHT22;12611;44.446;26.000;2023-11-21T08:54:04;12.30;89.70
24426;DHT22;12611;44.446;26.000;2023-11-21T08:56:35;12.40;89.20
24426;DHT22;12611;44.446;26.000;2023-11-21T08:59:03;12.50;88.50
24426;DHT22;12611;44.446;26.000;2023-11-21T09:01:32;12.60;88.20
24426;DHT22;12611;44.446;26.000;2023-11-21T09:04:02;12.70;88.20
24426;DHT22;12611;44.446;26.000;2023-11-21T09:06:30;12.80;87.90
24426;DHT22;12611;44.446;26.000;2023-11-21T09:08:59;12.90;87.40
24426;DHT22;12611;44.446;26.000;2023-11-21T09:11:27;13.00;87.10
24426;DHT22;12611;44.446;26.000;2023-11-21T09:14:00;13.00;86.30
24426;DHT22;12611;44.446;26.000;2023-11-21T09:16:30;13.20;86.30
24426;DHT22;12611;44.446;26.000;2023-11-21T09:18:59;13.20;85.70
24426;DHT22;12611;44.446;26.000;2023-11-21T09:21:30;13.30;86.50
24426;DHT22;12611;44.446;26.000;2023-11-21T09:23:58;13.40;86.60
24426;DHT22;12611;44.446;26.000;2023-11-21T09:26:27;13.50;86.60
24426;DHT22;12611;44.446;26.000;2023-11-21T09:28:57;13.60;86.60
24426;DHT22;12611;44.446;26.000;2023-11-21T09:31:25;13.70;86.60
24426;DHT22;12611;44.446;26.000;2023-11-21T09:33:54;13.80;86.20
24426;DHT22;12611;44.446;26.000;2023-11-21T09:36:24;13.90;85.10
24426;DHT22;12611;44.446;26.000;2023-11-21T09:38:56;14.00;85.40
24426;DHT22;12611;44.446;26.000;2023-11-21T09:41:34;14.00;85.50
24426;DHT22;12611;44.446;26.000;2023-11-21T09:44:08;14.20;85.10
24426;DHT22;12611;44.446;26.000;2023-11-21T09:46:40;14.30;84.50
24426;DHT22;12611;44.446;26.000;2023-11-21T09:49:10;14.40;84.00
24426;DHT22;12611;44.446;26.000;2023-11-21T09:51:42;14.50;83.80
24426;DHT22;12611;44.446;26.000;2023-11-21T09:54:14;14.70;83.60
24426;DHT22;12611;44.446;26.000;2023-11-21T09:56:44;14.70;81.90
24426;DHT22;12611;44.446;26.000;2023-11-21T09:59:14;14.80;82.70
24426;DHT22;12611;44.446;26.000;2023-11-21T10:01:43;14.90;82.20
24426;DHT22;12611;44.446;26.000;2023-11-21T10:04:13;15.00;82.10
24426;DHT22;12611;44.446;26.000;2023-11-21T10:06:44;15.10;80.80
24426;DHT22;12611;44.446;26.000;2023-11-21T10:09:15;15.20;80.50
24426;DHT22;12611;44.446;26.000;2023-11-21T10:11:49;15.30;80.40
24426;DHT22;12611;44.446;26.000;2023-11-21T10:14:19;15.40;79.40
24426;DHT22;12611;44.446;26.000;2023-11-21T10:16:52;15.50;79.20
24426;DHT22;12611;44.446;26.000;2023-11-21T10:19:21;15.50;79.70
24426;DHT22;12611;44.446;26.000;2023-11-21T10:21:53;15.60;79.10
24426;DHT22;12611;44.446;26.000;2023-11-21T10:24:23;15.60;78.20
24426;DHT22;12611;44.446;26.000;2023-11-21T10:26:51;15.70;77.90
24426;DHT22;12611;44.446;26.000;2023-11-21T10:29:21;15.70;77.60
24426;DHT22;12611;44.446;26.000;2023-11-21T10:31:50;15.70;77.20
24426;DHT22;12611;44.446;26.000;2023-11-21T10:34:20;15.70;76.90
24426;DHT22;12611;44.446;26.000;2023-11-21T10:36:49;15.70;77.00
24426;DHT22;12611;44.446;26.000;2023-11-21T10:39:18;15.80;76.30
24426;DHT22;12611;44.446;26.000;2023-11-21T10:41:49;15.90;77.00
24426;DHT22;12611;44.446;26.000;2023-11-21T10:44:18;15.90;76.90
24426;DHT22;12611;44.446;26.000;2023-11-21T10:46:49;16.00;76.90
24426;DHT22;12611;44.446;26.000;2023-11-21T10:49:19;16.00;76.40
24426;DHT22;12611;44.446;26.000;2023-11-21T10:51:48;16.00;75.70
24426;DHT22;12611;44.446;26.000;2023-11-21T10:54:19;16.00;76.00
24426;DHT22;12611;44.446;26.000;2023-11-21T10:56:53;16.00;76.10
24426;DHT22;12611;44.446;26.000;2023-11-21T10:59:22;16.00;76.30
24426;DHT22;12611;44.446;26.000;2023-11-21T11:01:52;16.10;76.40
24426;DHT22;12611;44.446;26.000;2023-11-21T11:04:22;16.10;76.60
24426;DHT22;12611;44.446;26.000;2023-11-21T11:06:55;16.10;76.60
24426;DHT22;12611;44.446;26.000;2023-11-21T11:09:26;16.20;76.80
24426;DHT22;12611;44.446;26.000;2023-11-21T11:11:56;16.30;76.80
24426;DHT22;12611;44.446;26.000;2023-11-21T11:14:26;16.30;76.90
24426;DHT22;12611;44.446;26.000;2023-11-21T11:16:55;16.20;76.50
24426;DHT22;12611;44.446;26.000;2023-11-21T11:19:24;16.30;76.60
24426;DHT22;12611;44.446;26.000;2023-11-21T11:22:00;16.20;76.60
24426;DHT22;12611;44.446;26.000;2023-11-21T11:24:53;16.30;76.30
24426;DHT22;12611;44.446;26.000;2023-11-21T11:27:37;16.30;76.40
24426;DHT22;12611;44.446;26.000;2023-11-21T11:30:19;16.30;76.70
24426;DHT22;12611;44.446;26.000;2023-11-21T11:32:57;16.30;76.60
24426;DHT22;12611;44.446;26.000;2023-11-21T11:35:34;16.30;75.90
24426;DHT22;12611;44.446;26.000;2023-11-21T11:38:06;16.30;75.30
24426;DHT22;12611;44.446;26.000;2023-11-21T11:40:39;16.30;75.60
24426;DHT22;12611;44.446;26.000;2023-11-21T11:43:10;16.40;75.90
24426;DHT22;12611;44.446;26.000;2023-11-21T11:45:39;16.40;75.80
24426;DHT22;12611;44.446;26.000;2023-11-21T11:48:11;16.40;75.70
24426;DHT22;12611;44.446;26.000;2023-11-21T11:51:01;16.50;75.50
24426;DHT22;12611;44.446;26.000;2023-11-21T11:53:39;16.50;75.80
24426;DHT22;12611;44.446;26.000;2023-11-21T11:56:26;16.50;75.90
24426;DHT22;12611;44.446;26.000;2023-11-21T11:58:58;16.50;75.80
24426;DHT22;12611;44.446;26.000;2023-11-21T12:01:27;16.60;75.50
24426;DHT22;12611;44.446;26.000;2023-11-21T12:04:24;16.60;75.40
24426;DHT22;12611;44.446;26.000;2023-11-21T12:07:02;16.60;75.20
24426;DHT22;12611;44.446;26.000;2023-11-21T12:09:31;16.60;75.10
24426;DHT22;12611;44.446;26.000;2023-11-21T12:12:01;16.70;75.60
24426;DHT22;12611;44.446;26.000;2023-11-21T12:14:32;16.70;75.00
24426;DHT22;12611;44.446;26.000;2023-11-21T12:17:00;16.70;74.60
24426;DHT22;12611;44.446;26.000;2023-11-21T12:19:32;16.80;74.40
24426;DHT22;12611;44.446;26.000;2023-11-21T12:22:00;16.80;74.30
24426;DHT22;12611;44.446;26.000;2023-11-21T12:24:30;16.90;74.10
24426;DHT22;12611;44.446;26.000;2023-11-21T12:26:59;17.00;74.40
24426;DHT22;12611;44.446;26.000;2023-11-21T12:29:27;17.10;74.50
24426;DHT22;12611;44.446;26.000;2023-11-21T12:31:58;17.10;74.10
24426;DHT22;12611;44.446;26.000;2023-11-21T12:34:26;17.10;74.00
24426;DHT22;12611;44.446;26.000;2023-11-21T12:37:04;17.10;73.50
24426;DHT22;12611;44.446;26.000;2023-11-21T12:39:44;17.10;72.60
24426;DHT22;12611;44.446;26.000;2023-11-21T12:42:13;17.00;72.40
24426;DHT22;12611;44.446;26.000;2023-11-21T12:44:42;17.00;72.60
24426;DHT22;12611;44.446;26.000;2023-11-21T12:47:19;17.00;72.60
24426;DHT22;12611;44.446;26.000;2023-11-21T12:49:48;17.00;72.50
24426;DHT22;12611;44.446;26.000;2023-11-21T12:52:18;17.00;73.10
24426;DHT22;12611;44.446;26.000;2023-11-21T12:54:47;17.00;73.30
24426;DHT22;12611;44.446;26.000;2023-11-21T12:57:16;17.00;73.50
24426;DHT22;12611;44.446;26.000;2023-11-21T12:59:45;17.00;73.80
24426;DHT22;12611;44.446;26.000;2023-11-21T13:02:14;17.00;74.00
24426;DHT22;12611;44.446;26.000;2023-11-21T13:04:51;17.00;74.10
24426;DHT22;12611;44.446;26.000;2023-11-21T13:07:21;17.00;74.10
24426;DHT22;12611;44.446;26.000;2023-11-21T13:09:52;17.00;74.00
24426;DHT22;12611;44.446;26.000;2023-11-21T13:12:24;17.00;74.10
24426;DHT22;12611;44.446;26.000;2023-11-21T13:14:52;17.10;74.10
24426;DHT22;12611;44.446;26.000;2023-11-21T13:17:21;17.10;74.30
24426;DHT22;12611;44.446;26.000;2023-11-21T13:19:53;17.10;74.00
24426;DHT22;12611;44.446;26.000;2023-11-21T13:22:21;17.10;73.80
24426;DHT22;12611;44.446;26.000;2023-11-21T13:24:51;17.20;73.90
24426;DHT22;12611;44.446;26.000;2023-11-21T13:27:20;17.40;73.60
24426;DHT22;12611;44.446;26.000;2023-11-21T13:29:48;18.50;71.70
24426;DHT22;12611;44.446;26.000;2023-11-21T13:32:17;20.00;68.90
24426;DHT22;12611;44.446;26.000;2023-11-21T13:34:47;20.80;67.00
24426;DHT22;12611;44.446;26.000;2023-11-21T13:37:21;21.20;65.80
24426;DHT22;12611;44.446;26.000;2023-11-21T13:39:51;21.20;65.10
24426;DHT22;12611;44.446;26.000;2023-11-21T13:42:21;20.70;65.80
24426;DHT22;12611;44.446;26.000;2023-11-21T13:44:56;20.20;66.60
24426;DHT22;12611;44.446;26.000;2023-11-21T13:47:25;19.80;67.80
24426;DHT22;12611;44.446;26.000;2023-11-21T13:49:56;19.50;67.90
24426;DHT22;12611;44.446;26.000;2023-11-21T13:52:29;19.30;68.20
24426;DHT22;12611;44.446;26.000;2023-11-21T13:55:00;19.10;68.40
24426;DHT22;12611;44.446;26.000;2023-11-21T13:57:33;18.90;68.30
24426;DHT22;12611;44.446;26.000;2023-11-21T14:00:02;18.80;68.90
24426;DHT22;12611;44.446;26.000;2023-11-21T14:02:37;18.60;68.80
24426;DHT22;12611;44.446;26.000;2023-11-21T14:05:09;18.40;68.90
24426;DHT22;12611;44.446;26.000;2023-11-21T14:07:41;18.30;69.50
24426;DHT22;12611;44.446;26.000;2023-11-21T14:10:15;18.20;69.90
24426;DHT22;12611;44.446;26.000;2023-11-21T14:12:49;18.00;70.10
24426;DHT22;12611;44.446;26.000;2023-11-21T14:15:17;17.90;70.40
24426;DHT22;12611;44.446;26.000;2023-11-21T14:17:46;17.80;70.70
24426;DHT22;12611;44.446;26.000;2023-11-21T14:20:14;17.70;70.80
24426;DHT22;12611;44.446;26.000;2023-11-21T14:22:49;17.60;71.00
24426;DHT22;12611;44.446;26.000;2023-11-21T14:25:18;17.50;71.10
24426;DHT22;12611;44.446;26.000;2023-11-21T14:27:48;17.40;71.30
24426;DHT22;12611;44.446;26.000;2023-11-21T14:30:17;17.30;71.30
24426;DHT22;12611;44.446;26.000;2023-11-21T14:32:50;17.20;71.40
24426;DHT22;12611;44.446;26.000;2023-11-21T14:35:19;17.10;71.70
24426;DHT22;12611;44.446;26.000;2023-11-21T14:37:49;17.00;71.80
24426;DHT22;12611;44.446;26.000;2023-11-21T14:40:18;16.90;71.90
24426;DHT22;12611;44.446;26.000;2023-11-21T14:42:51;16.80;72.10
24426;DHT22;12611;44.446;26.000;2023-11-21T14:45:21;16.70;72.20
24426;DHT22;12611;44.446;26.000;2023-11-21T14:47:53;16.60;72.40
24426;DHT22;12611;44.446;26.000;2023-11-21T14:50:33;16.60;72.60
24426;DHT22;12611;44.446;26.000;2023-11-21T14:53:19;16.40;72.70
24426;DHT22;12611;44.446;26.000;2023-11-21T14:56:09;16.30;72.80
24426;DHT22;12611;44.446;26.000;2023-11-21T14:58:39;16.20;72.90
24426;DHT22;12611;44.446;26.000;2023-11-21T15:01:07;16.10;73.00
24426;DHT22;12611;44.446;26.000;2023-11-21T15:03:35;16.10;73.20
24426;DHT22;12611;44.446;26.000;2023-11-21T15:06:15;15.90;73.30
24426;DHT22;12611;44.446;26.000;2023-11-21T15:08:51;15.90;73.50
24426;DHT22;12611;44.446;26.000;2023-11-21T15:11:26;15.70;73.50
24426;DHT22;12611;44.446;26.000;2023-11-21T15:13:58;15.70;73.70
24426;DHT22;12611;44.446;26.000;2023-11-21T15:16:27;15.60;73.80
24426;DHT22;12611;44.446;26.000;2023-11-21T15:18:55;15.50;73.90
24426;DHT22;12611;44.446;26.000;2023-11-21T15:21:24;15.40;73.90
24426;DHT22;12611;44.446;26.000;2023-11-21T15:23:54;15.40;74.20
24426;DHT22;12611;44.446;26.000;2023-11-21T15:26:23;15.30;74.40
24426;DHT22;12611;44.446;26.000;2023-11-21T15:28:54;15.20;74.60
24426;DHT22;12611;44.446;26.000;2023-11-21T15:31:23;15.10;74.70
24426;DHT22;12611;44.446;26.000;2023-11-21T15:33:52;15.00;75.00
24426;DHT22;12611;44.446;26.000;2023-11-21T15:36:21;14.90;75.20
24426;DHT22;12611;44.446;26.000;2023-11-21T15:38:49;14.90;75.40
24426;DHT22;12611;44.446;26.000;2023-11-21T15:41:20;14.80;75.70
24426;DHT22;12611;44.446;26.000;2023-11-21T15:43:49;14.70;76.30